createdAt,value
2022-11-22T00:00:44.456Z,1.79
2022-11-22T00:01:44.518Z,1.81
2022-11-22T00:02:44.442Z,1.81
2022-11-22T00:03:44.454Z,1.81
2022-11-22T00:04:44.414Z,1.79
2022-11-22T00:05:44.430Z,1.77
2022-11-22T00:06:44.391Z,1.77
2022-11-22T00:07:44.477Z,1.77
2022-11-22T00:08:44.381Z,1.77
2022-11-22T00:09:44.386Z,1.77
2022-11-22T00:10:44.350Z,1.76
2022-11-22T00:11:44.388Z,1.76
2022-11-22T00:12:44.334Z,1.73
2022-11-22T00:13:44.352Z,1.77
2022-11-22T00:14:44.328Z,1.77
2022-11-22T00:15:44.330Z,1.73
2022-11-22T00:16:44.291Z,1.76
2022-11-22T00:17:44.314Z,1.76
2022-11-22T00:18:44.282Z,1.77
2022-11-22T00:19:44.290Z,1.77
2022-11-22T00:20:44.248Z,1.73
2022-11-22T00:21:44.273Z,1.76
2022-11-22T00:22:45.098Z,1.77
2022-11-22T00:23:44.247Z,1.80
2022-11-22T00:24:44.208Z,1.77
2022-11-22T00:25:44.227Z,1.80
2022-11-22T00:26:44.195Z,1.80
2022-11-22T00:27:44.212Z,1.81
2022-11-22T00:28:44.170Z,1.80
2022-11-22T00:29:44.201Z,1.81
2022-11-22T00:30:44.148Z,1.83
2022-11-22T00:31:44.182Z,1.86
2022-11-22T00:32:44.145Z,1.87
2022-11-22T00:33:44.135Z,1.88
2022-11-22T00:34:44.121Z,1.91
2022-11-22T00:35:44.137Z,1.93
2022-11-22T00:36:44.088Z,1.98
2022-11-22T00:37:44.115Z,1.98
2022-11-22T00:38:44.077Z,1.98
2022-11-22T00:39:44.073Z,1.98
2022-11-22T00:40:44.083Z,1.99
2022-11-22T00:41:44.091Z,2.02
2022-11-22T00:42:44.035Z,2.03
2022-11-22T00:43:44.054Z,2.06
2022-11-22T00:44:44.018Z,2.07
2022-11-22T00:45:44.022Z,2.07
2022-11-22T00:46:43.981Z,2.07
2022-11-22T00:47:44.012Z,2.10
2022-11-22T00:48:44.001Z,2.12
2022-11-22T00:49:43.970Z,2.10
2022-11-22T00:50:43.940Z,2.10
2022-11-22T00:51:43.947Z,2.10
2022-11-22T00:52:43.947Z,2.09
2022-11-22T00:53:43.955Z,2.10
2022-11-22T00:54:43.912Z,2.10
2022-11-22T00:55:43.924Z,2.10
2022-11-22T00:56:43.896Z,2.14
2022-11-22T00:57:43.895Z,2.10
2022-11-22T00:58:43.869Z,2.12
2022-11-22T00:59:43.892Z,2.12
2022-11-22T01:00:43.918Z,2.12
2022-11-22T01:01:43.940Z,2.12
2022-11-22T01:02:43.822Z,2.12
2022-11-22T01:03:43.844Z,2.12
2022-11-22T01:04:43.815Z,2.10
2022-11-22T01:05:43.842Z,2.10
2022-11-22T01:06:43.780Z,2.10
2022-11-22T01:07:43.861Z,2.10
2022-11-22T01:08:43.764Z,2.10
2022-11-22T01:09:43.789Z,2.09
2022-11-22T01:10:43.741Z,2.12
2022-11-22T01:11:43.759Z,2.14
2022-11-22T01:12:43.729Z,2.16
2022-11-22T01:13:43.745Z,2.17
2022-11-22T01:14:43.702Z,2.14
2022-11-22T01:15:43.733Z,2.16
2022-11-22T01:16:43.677Z,2.16
2022-11-22T01:17:43.699Z,2.16
2022-11-22T01:18:42.695Z,2.12
2022-11-22T01:19:43.663Z,2.14
2022-11-22T01:20:43.639Z,2.14
2022-11-22T01:21:43.676Z,2.14
2022-11-22T01:22:43.623Z,2.14
2022-11-22T01:23:43.629Z,2.16
2022-11-22T01:24:43.604Z,2.20
2022-11-22T01:25:43.627Z,2.18
2022-11-22T01:26:43.601Z,2.20
2022-11-22T01:27:43.628Z,2.20
2022-11-22T01:28:43.568Z,2.23
2022-11-22T01:29:43.584Z,2.24
2022-11-22T01:30:43.549Z,2.25
2022-11-22T01:31:43.571Z,2.28
2022-11-22T01:32:43.515Z,2.31
2022-11-22T01:33:43.538Z,2.31
2022-11-22T01:34:43.511Z,2.36
2022-11-22T01:35:43.511Z,2.38
2022-11-22T01:36:43.499Z,2.42
2022-11-22T01:37:43.504Z,2.45
2022-11-22T01:38:43.470Z,2.49
2022-11-22T01:39:43.460Z,2.54
2022-11-22T01:40:43.460Z,2.59
2022-11-22T01:41:43.449Z,2.63
2022-11-22T01:42:43.427Z,2.67
2022-11-22T01:43:43.425Z,2.74
2022-11-22T01:44:43.395Z,2.75
2022-11-22T01:45:43.425Z,2.79
2022-11-22T01:46:43.395Z,2.79
2022-11-22T01:47:43.408Z,2.82
2022-11-22T01:48:43.365Z,2.82
2022-11-22T01:49:43.376Z,2.84
2022-11-22T01:50:43.335Z,2.85
2022-11-22T01:51:43.354Z,2.85
2022-11-22T01:52:43.322Z,2.87
2022-11-22T01:53:43.344Z,2.87
2022-11-22T01:54:43.318Z,2.87
2022-11-22T01:55:43.307Z,2.87
2022-11-22T01:56:43.290Z,2.87
2022-11-22T01:57:43.294Z,2.89
2022-11-22T01:58:43.280Z,2.87
2022-11-22T01:59:43.286Z,2.89
2022-11-22T02:00:43.253Z,2.92
2022-11-22T02:01:43.289Z,2.92
2022-11-22T02:02:43.213Z,2.89
2022-11-22T02:03:43.222Z,2.89
2022-11-22T02:04:43.202Z,2.87
2022-11-22T02:05:43.211Z,2.87
2022-11-22T02:06:43.176Z,2.87
2022-11-22T02:07:43.267Z,2.84
2022-11-22T02:08:43.176Z,2.87
2022-11-22T02:09:43.182Z,2.85
2022-11-22T02:10:43.128Z,2.84
2022-11-22T02:11:43.151Z,2.84
2022-11-22T02:12:43.111Z,2.85
2022-11-22T02:13:43.238Z,2.85
2022-11-22T02:14:43.129Z,2.84
2022-11-22T02:15:43.109Z,2.84
2022-11-22T02:16:43.068Z,2.82
2022-11-22T02:17:43.089Z,2.85
2022-11-22T02:18:43.078Z,2.85
2022-11-22T02:19:43.056Z,2.85
2022-11-22T02:20:43.077Z,2.85
2022-11-22T02:21:43.048Z,2.85
2022-11-22T02:22:43.023Z,2.87
2022-11-22T02:23:43.003Z,2.89
2022-11-22T02:24:43.020Z,2.90
2022-11-22T02:25:42.983Z,2.90
2022-11-22T02:26:43.020Z,2.92
2022-11-22T02:27:43.001Z,2.95
2022-11-22T02:28:42.968Z,2.93
2022-11-22T02:29:42.947Z,2.92
2022-11-22T02:30:42.958Z,2.90
2022-11-22T02:31:42.917Z,2.90
2022-11-22T02:32:42.947Z,2.87
2022-11-22T02:33:42.921Z,2.85
2022-11-22T02:34:42.949Z,2.85
2022-11-22T02:35:42.879Z,2.84
2022-11-22T02:36:42.895Z,2.84
2022-11-22T02:37:42.888Z,2.85
2022-11-22T02:38:42.876Z,2.85
2022-11-22T02:39:42.844Z,2.87
2022-11-22T02:40:42.845Z,2.89
2022-11-22T02:41:42.823Z,2.92
2022-11-22T02:42:42.848Z,2.95
2022-11-22T02:43:42.809Z,2.97
2022-11-22T02:44:42.825Z,2.99
2022-11-22T02:45:42.790Z,3.00
2022-11-22T02:46:42.799Z,3.06
2022-11-22T02:47:42.775Z,3.06
2022-11-22T02:48:42.830Z,3.06
2022-11-22T02:49:42.751Z,3.05
2022-11-22T02:50:42.745Z,3.06
2022-11-22T02:51:42.723Z,3.08
2022-11-22T02:52:42.737Z,3.10
2022-11-22T02:53:42.704Z,3.11
2022-11-22T02:54:42.712Z,3.14
2022-11-22T02:55:42.687Z,3.14
2022-11-22T02:56:42.694Z,3.15
2022-11-22T02:57:42.653Z,3.15
2022-11-22T02:58:42.685Z,3.17
2022-11-22T02:59:42.657Z,3.17
2022-11-22T03:00:42.720Z,3.18
2022-11-22T03:01:42.614Z,3.17
2022-11-22T03:02:42.636Z,3.20
2022-11-22T03:03:42.596Z,3.20
2022-11-22T03:04:42.633Z,3.18
2022-11-22T03:05:42.579Z,3.18
2022-11-22T03:06:42.584Z,3.18
2022-11-22T03:07:42.627Z,3.18
2022-11-22T03:08:42.577Z,3.18
2022-11-22T03:09:42.541Z,3.18
2022-11-22T03:10:41.568Z,3.15
2022-11-22T03:11:42.511Z,3.13
2022-11-22T03:12:42.536Z,3.15
2022-11-22T03:13:42.498Z,3.15
2022-11-22T03:14:42.498Z,3.14
2022-11-22T03:15:42.484Z,3.14
2022-11-22T03:16:42.478Z,3.13
2022-11-22T03:17:42.474Z,3.14
2022-11-22T03:18:42.464Z,3.15
2022-11-22T03:19:42.434Z,3.14
2022-11-22T03:20:42.472Z,3.17
2022-11-22T03:21:42.431Z,3.17
2022-11-22T03:22:42.439Z,3.17
2022-11-22T03:23:42.411Z,3.17
2022-11-22T03:24:42.429Z,3.18
2022-11-22T03:25:42.386Z,3.18
2022-11-22T03:26:42.402Z,3.18
2022-11-22T03:27:42.358Z,3.20
2022-11-22T03:28:42.375Z,3.21
2022-11-22T03:29:42.336Z,3.21
2022-11-22T03:30:42.354Z,3.24
2022-11-22T03:31:42.320Z,3.26
2022-11-22T03:32:42.335Z,3.28
2022-11-22T03:33:42.332Z,3.28
2022-11-22T03:34:42.299Z,3.29
2022-11-22T03:35:42.269Z,3.31
2022-11-22T03:36:42.310Z,3.31
2022-11-22T03:37:42.247Z,3.32
2022-11-22T03:38:42.396Z,3.32
2022-11-22T03:39:42.230Z,3.33
2022-11-22T03:40:42.259Z,3.33
2022-11-22T03:41:42.234Z,3.35
2022-11-22T03:42:42.247Z,3.36
2022-11-22T03:43:42.239Z,3.36
2022-11-22T03:44:42.197Z,3.39
2022-11-22T03:45:42.171Z,3.40
2022-11-22T03:46:42.185Z,3.42
2022-11-22T03:47:42.164Z,3.43
2022-11-22T03:48:42.177Z,3.45
2022-11-22T03:49:42.132Z,3.45
2022-11-22T03:50:42.131Z,3.47
2022-11-22T03:51:42.110Z,3.48
2022-11-22T03:52:42.130Z,3.47
2022-11-22T03:53:42.151Z,3.50
2022-11-22T03:54:42.106Z,3.51
2022-11-22T03:55:42.083Z,3.48
2022-11-22T03:56:42.086Z,3.51
2022-11-22T03:57:42.043Z,3.52
2022-11-22T03:58:42.081Z,3.52
2022-11-22T03:59:42.029Z,3.52
2022-11-22T04:00:42.027Z,3.54
2022-11-22T04:01:42.046Z,3.54
2022-11-22T04:02:42.022Z,3.51
2022-11-22T04:03:42.025Z,3.52
2022-11-22T04:04:41.996Z,3.52
2022-11-22T04:05:41.975Z,3.54
2022-11-22T04:06:41.983Z,3.54
2022-11-22T04:07:42.023Z,3.55
2022-11-22T04:08:42.052Z,3.57
2022-11-22T04:09:41.925Z,3.57
2022-11-22T04:10:41.931Z,3.55
2022-11-22T04:11:41.909Z,3.58
2022-11-22T04:12:41.929Z,3.57
2022-11-22T04:13:41.888Z,3.60
2022-11-22T04:14:41.883Z,3.60
2022-11-22T04:15:41.857Z,3.60
2022-11-22T04:16:41.892Z,3.61
2022-11-22T04:17:41.866Z,3.60
2022-11-22T04:18:41.875Z,3.61
2022-11-22T04:19:41.815Z,3.61
2022-11-22T04:20:41.836Z,3.62
2022-11-22T04:21:41.798Z,3.61
2022-11-22T04:22:41.818Z,3.62
2022-11-22T04:23:41.826Z,3.65
2022-11-22T04:24:41.793Z,3.62
2022-11-22T04:25:41.755Z,3.62
2022-11-22T04:26:41.788Z,3.65
2022-11-22T04:27:41.737Z,3.68
2022-11-22T04:29:08.058Z,3.69
2022-11-22T04:29:41.727Z,3.68
2022-11-22T04:30:41.719Z,3.69
2022-11-22T04:31:41.698Z,3.70
2022-11-22T04:32:41.712Z,3.70
2022-11-22T04:33:41.687Z,3.72
2022-11-22T04:34:41.691Z,3.73
2022-11-22T04:35:41.657Z,3.72
2022-11-22T04:36:41.662Z,3.72
2022-11-22T04:37:41.629Z,3.75
2022-11-22T04:38:41.662Z,3.78
2022-11-22T04:39:41.622Z,3.78
2022-11-22T04:40:41.637Z,3.79
2022-11-22T04:41:41.627Z,3.80
2022-11-22T04:42:41.593Z,3.79
2022-11-22T04:43:41.592Z,3.79
2022-11-22T04:44:41.583Z,3.80
2022-11-22T04:45:41.545Z,3.80
2022-11-22T04:46:41.550Z,3.79
2022-11-22T04:47:43.888Z,3.84
2022-11-22T04:48:41.615Z,3.84
2022-11-22T04:49:41.503Z,3.86
2022-11-22T04:50:41.527Z,3.87
2022-11-22T04:51:41.488Z,3.86
2022-11-22T04:52:41.521Z,3.88
2022-11-22T04:53:41.493Z,3.88
2022-11-22T04:54:41.481Z,3.90
2022-11-22T04:55:41.447Z,3.90
2022-11-22T04:56:41.458Z,3.90
2022-11-22T04:57:41.426Z,3.91
2022-11-22T04:58:41.459Z,3.91
2022-11-22T04:59:41.412Z,3.91
2022-11-22T05:00:41.478Z,3.91
2022-11-22T05:01:41.379Z,3.93
2022-11-22T05:02:41.435Z,3.96
2022-11-22T05:03:41.372Z,3.94
2022-11-22T05:04:44.097Z,3.96
2022-11-22T05:05:41.357Z,3.96
2022-11-22T05:06:41.360Z,3.97
2022-11-22T05:07:41.363Z,3.97
2022-11-22T05:08:41.344Z,3.97
2022-11-22T05:09:41.331Z,3.98
2022-11-22T05:10:41.301Z,3.96
2022-11-22T05:11:41.280Z,3.98
2022-11-22T05:12:41.310Z,3.97
2022-11-22T05:13:41.259Z,3.98
2022-11-22T05:14:41.285Z,4.00
2022-11-22T05:15:41.247Z,4.00
2022-11-22T05:16:41.241Z,4.02
2022-11-22T05:17:41.224Z,4.04
2022-11-22T05:18:41.271Z,4.04
2022-11-22T05:19:44.992Z,4.05
2022-11-22T05:20:41.208Z,4.04
2022-11-22T05:21:41.182Z,4.05
2022-11-22T05:22:41.188Z,4.06
2022-11-22T05:23:41.147Z,4.06
2022-11-22T05:24:41.168Z,4.08
2022-11-22T05:25:41.131Z,4.08
2022-11-22T05:26:41.153Z,4.11
2022-11-22T05:27:41.133Z,4.11
2022-11-22T05:28:41.156Z,4.11
2022-11-22T05:29:41.084Z,4.11
2022-11-22T05:30:41.108Z,4.11
2022-11-22T05:31:41.083Z,4.12
2022-11-22T05:32:41.069Z,4.14
2022-11-22T05:33:41.045Z,4.14
2022-11-22T05:34:41.067Z,4.15
2022-11-22T05:35:41.019Z,4.18
2022-11-22T05:36:41.058Z,4.15
2022-11-22T05:37:41.007Z,4.16
2022-11-22T05:38:41.034Z,4.15
2022-11-22T05:39:40.980Z,4.09
2022-11-22T05:40:41.003Z,4.09
2022-11-22T05:41:40.987Z,4.08
2022-11-22T05:42:40.990Z,4.08
2022-11-22T05:43:40.946Z,4.08
2022-11-22T05:44:40.950Z,4.09
2022-11-22T05:45:40.922Z,4.09
2022-11-22T05:46:40.945Z,4.09
2022-11-22T05:47:40.895Z,4.08
2022-11-22T05:48:40.932Z,4.09
2022-11-22T05:49:40.873Z,4.11
2022-11-22T05:50:40.913Z,4.08
2022-11-22T05:51:40.874Z,4.08
2022-11-22T05:52:40.858Z,4.09
2022-11-22T05:53:40.835Z,4.09
2022-11-22T05:54:40.870Z,4.11
2022-11-22T05:55:40.810Z,4.09
2022-11-22T05:56:40.835Z,4.08
2022-11-22T05:57:40.788Z,4.09
2022-11-22T05:58:40.798Z,4.12
2022-11-22T05:59:44.117Z,4.14
2022-11-22T06:00:40.787Z,4.12
2022-11-22T06:01:40.832Z,4.14
2022-11-22T06:02:40.812Z,4.14
2022-11-22T06:03:40.725Z,4.16
2022-11-22T06:04:40.773Z,4.16
2022-11-22T06:05:40.714Z,4.18
2022-11-22T06:06:40.735Z,4.18
2022-11-22T06:07:40.774Z,4.20
2022-11-22T06:08:40.708Z,4.24
2022-11-22T06:09:40.678Z,4.24
2022-11-22T06:10:40.686Z,4.26
2022-11-22T06:11:40.645Z,4.29
2022-11-22T06:12:40.657Z,4.30
2022-11-22T06:13:40.633Z,4.30
2022-11-22T06:14:43.467Z,4.32
2022-11-22T06:15:40.570Z,4.34
2022-11-22T06:16:40.550Z,4.34
2022-11-22T06:17:40.541Z,4.34
2022-11-22T06:18:40.606Z,4.36
2022-11-22T06:19:40.528Z,4.36
2022-11-22T06:20:40.515Z,4.36
2022-11-22T06:21:40.572Z,4.40
2022-11-22T06:22:40.513Z,4.41
2022-11-22T06:23:40.458Z,4.41
2022-11-22T06:24:40.543Z,4.44
2022-11-22T06:25:40.491Z,4.42
2022-11-22T06:26:40.468Z,4.45
2022-11-22T06:27:40.437Z,4.47
2022-11-22T06:28:40.444Z,4.47
2022-11-22T06:29:40.406Z,4.47
2022-11-22T06:30:40.413Z,4.47
2022-11-22T06:31:40.379Z,4.47
2022-11-22T06:32:40.407Z,4.47
2022-11-22T06:33:40.362Z,4.47
2022-11-22T06:34:40.375Z,4.47
2022-11-22T06:35:40.336Z,4.47
2022-11-22T06:36:40.338Z,4.45
2022-11-22T06:37:40.316Z,4.47
2022-11-22T06:38:40.343Z,4.47
2022-11-22T06:39:40.330Z,4.45
2022-11-22T06:40:40.278Z,4.45
2022-11-22T06:41:40.287Z,4.47
2022-11-22T06:42:40.324Z,4.45
2022-11-22T06:43:45.111Z,4.47
2022-11-22T06:44:40.256Z,4.47
2022-11-22T06:45:40.339Z,4.47
2022-11-22T06:46:40.220Z,4.50
2022-11-22T06:47:40.226Z,4.50
2022-11-22T06:48:40.200Z,4.50
2022-11-22T06:49:40.230Z,4.50
2022-11-22T06:50:40.213Z,4.51
2022-11-22T06:51:40.182Z,4.52
2022-11-22T06:52:40.172Z,4.52
2022-11-22T06:53:47.383Z,4.52
2022-11-22T06:54:40.141Z,4.54
2022-11-22T06:56:01.011Z,4.52
2022-11-22T06:56:40.119Z,4.54
2022-11-22T06:57:40.150Z,4.54
2022-11-22T06:58:40.123Z,4.54
2022-11-22T06:59:40.115Z,4.54
2022-11-22T07:00:40.086Z,4.58
2022-11-22T07:01:40.176Z,4.58
2022-11-22T07:02:40.054Z,4.58
2022-11-22T07:03:40.099Z,4.59
2022-11-22T07:04:56.107Z,4.59
2022-11-22T07:05:40.070Z,4.60
2022-11-22T07:06:40.006Z,4.59
2022-11-22T07:07:40.070Z,4.60
2022-11-22T07:08:40.040Z,4.59
2022-11-22T07:09:40.054Z,4.60
2022-11-22T07:10:39.976Z,4.60
2022-11-22T07:11:39.994Z,4.59
2022-11-22T07:12:40.013Z,4.60
2022-11-22T07:13:39.952Z,4.62
2022-11-22T07:14:39.984Z,4.62
2022-11-22T07:15:40.062Z,4.65
2022-11-22T07:16:39.950Z,4.65
2022-11-22T07:17:39.909Z,4.66
2022-11-22T07:18:39.880Z,4.69
2022-11-22T07:19:39.887Z,4.69
2022-11-22T07:20:39.859Z,4.70
2022-11-22T07:21:39.896Z,4.69
2022-11-22T07:22:39.858Z,4.70
2022-11-22T07:23:39.840Z,4.73
2022-11-22T07:24:39.816Z,4.75
2022-11-22T07:25:39.869Z,4.80
2022-11-22T07:26:39.842Z,4.82
2022-11-22T07:27:39.807Z,4.84
2022-11-22T07:28:39.791Z,4.85
2022-11-22T07:29:39.795Z,4.88
2022-11-22T07:30:43.869Z,4.91
2022-11-22T07:31:39.789Z,4.92
2022-11-22T07:32:39.748Z,4.96
2022-11-22T07:33:39.751Z,4.97
2022-11-22T07:34:39.728Z,5.02
2022-11-22T07:35:39.722Z,5.00
2022-11-22T07:36:39.688Z,5.02
2022-11-22T07:37:39.714Z,5.03
2022-11-22T07:38:39.689Z,5.07
2022-11-22T07:39:39.671Z,5.06
2022-11-22T07:40:39.689Z,5.10
2022-11-22T07:41:39.665Z,5.12
2022-11-22T07:42:39.656Z,5.13
2022-11-22T07:43:39.647Z,5.17
2022-11-22T07:44:46.092Z,5.17
2022-11-22T07:45:39.610Z,5.18
2022-11-22T07:46:39.579Z,5.21
2022-11-22T07:47:39.587Z,5.22
2022-11-22T07:48:39.590Z,5.22
2022-11-22T07:49:39.582Z,5.24
2022-11-22T07:50:39.547Z,5.27
2022-11-22T07:51:39.559Z,5.28
2022-11-22T07:52:39.519Z,5.30
2022-11-22T07:53:39.542Z,5.33
2022-11-22T07:54:39.521Z,5.35
2022-11-22T07:55:39.517Z,5.36
2022-11-22T07:56:39.476Z,5.39
2022-11-22T07:57:39.498Z,5.42
2022-11-22T07:58:39.495Z,5.42
2022-11-22T07:59:39.475Z,5.42
2022-11-22T08:00:39.446Z,5.45
2022-11-22T08:01:39.453Z,5.48
2022-11-22T08:02:39.416Z,5.45
2022-11-22T08:03:39.422Z,5.46
2022-11-22T08:04:39.423Z,5.46
2022-11-22T08:05:39.400Z,5.48
2022-11-22T08:06:39.375Z,5.51
2022-11-22T08:07:39.438Z,5.54
2022-11-22T08:08:39.363Z,5.58
2022-11-22T08:09:39.394Z,5.61
2022-11-22T08:10:39.330Z,5.67
2022-11-22T08:11:39.354Z,5.74
2022-11-22T08:12:39.311Z,5.76
2022-11-22T08:13:39.343Z,5.82
2022-11-22T08:14:39.296Z,5.86
2022-11-22T08:15:39.311Z,5.90
2022-11-22T08:16:39.275Z,5.89
2022-11-22T08:17:39.278Z,5.90
2022-11-22T08:18:39.252Z,5.90
2022-11-22T08:19:39.279Z,5.93
2022-11-22T08:20:39.230Z,5.96
2022-11-22T08:21:39.246Z,6.00
2022-11-22T08:22:39.206Z,6.03
2022-11-22T08:23:39.236Z,6.06
2022-11-22T08:24:39.201Z,6.09
2022-11-22T08:25:39.193Z,6.12
2022-11-22T08:26:39.179Z,6.18
2022-11-22T08:27:39.167Z,6.25
2022-11-22T08:28:39.181Z,6.28
2022-11-22T08:29:39.159Z,6.33
2022-11-22T08:30:39.131Z,6.37
2022-11-22T08:31:39.142Z,6.40
2022-11-22T08:32:39.100Z,6.44
2022-11-22T08:33:39.109Z,6.51
2022-11-22T08:34:44.230Z,6.56
2022-11-22T08:35:39.114Z,6.59
2022-11-22T08:36:39.094Z,6.62
2022-11-22T08:37:39.066Z,6.69
2022-11-22T08:38:39.042Z,6.70
2022-11-22T08:39:39.058Z,6.71
2022-11-22T08:40:41.145Z,6.76
2022-11-22T08:41:39.046Z,6.84
2022-11-22T08:42:38.997Z,6.89
2022-11-22T08:43:39.014Z,6.89
2022-11-22T08:44:38.977Z,6.94
2022-11-22T08:45:38.991Z,6.99
2022-11-22T08:46:38.964Z,7.09
2022-11-22T08:47:38.968Z,7.15
2022-11-22T08:48:38.945Z,7.21
2022-11-22T08:49:38.941Z,7.25
2022-11-22T08:50:38.923Z,7.30
2022-11-22T08:51:38.920Z,7.34
2022-11-22T08:52:38.903Z,7.32
2022-11-22T08:53:38.912Z,7.39
2022-11-22T08:54:38.883Z,7.37
2022-11-22T08:55:38.877Z,7.45
2022-11-22T08:56:38.849Z,7.49
2022-11-22T08:57:38.886Z,7.52
2022-11-22T08:58:38.836Z,7.55
2022-11-22T08:59:38.883Z,7.55
2022-11-22T09:00:38.809Z,7.55
2022-11-22T09:01:38.852Z,7.55
2022-11-22T09:02:38.812Z,7.53
2022-11-22T09:03:38.809Z,7.53
2022-11-22T09:04:38.774Z,7.55
2022-11-22T09:08:24.110Z,7.61
2022-11-22T09:08:31.407Z,7.61
2022-11-22T09:09:37.825Z,7.61
2022-11-22T09:10:29.071Z,7.67
2022-11-22T09:11:29.033Z,7.68
2022-11-22T09:12:29.044Z,7.75
2022-11-22T09:13:29.037Z,7.79
2022-11-22T09:14:29.092Z,7.75
2022-11-22T09:15:28.991Z,7.80
2022-11-22T09:16:29.005Z,7.90
2022-11-22T09:17:28.973Z,8.02
2022-11-22T09:18:28.976Z,8.10
2022-11-22T09:19:29.189Z,8.22
2022-11-22T09:20:28.955Z,8.29
2022-11-22T09:21:28.944Z,8.34
2022-11-22T09:22:28.946Z,8.45
2022-11-22T09:23:28.910Z,8.53
2022-11-22T09:24:28.956Z,8.68
2022-11-22T09:25:28.932Z,8.83
2022-11-22T09:26:28.892Z,8.95
2022-11-22T09:27:28.865Z,8.99
2022-11-22T09:28:28.883Z,8.91
2022-11-22T09:29:29.318Z,8.74
2022-11-22T09:30:28.872Z,8.61
2022-11-22T09:31:28.826Z,8.68
2022-11-22T09:32:33.510Z,8.80
2022-11-22T09:33:28.807Z,8.87
2022-11-22T09:34:28.810Z,8.95
2022-11-22T09:35:28.841Z,8.98
2022-11-22T09:36:28.800Z,8.86
2022-11-22T09:37:28.762Z,8.83
2022-11-22T09:38:28.778Z,8.87
2022-11-22T09:39:29.017Z,8.86
2022-11-22T09:40:28.783Z,8.84
2022-11-22T09:41:28.731Z,8.86
2022-11-22T09:42:28.752Z,8.92
2022-11-22T09:43:28.699Z,9.04
2022-11-22T09:44:28.716Z,9.15
2022-11-22T09:45:28.698Z,9.24
2022-11-22T09:46:28.713Z,9.23
2022-11-22T09:47:28.656Z,9.18
2022-11-22T09:48:28.648Z,9.24
2022-11-22T09:49:29.287Z,9.32
2022-11-22T09:50:28.659Z,9.35
2022-11-22T09:51:28.645Z,9.38
2022-11-22T09:52:28.631Z,9.39
2022-11-22T09:53:28.591Z,9.42
2022-11-22T09:54:28.662Z,9.36
2022-11-22T09:55:28.569Z,9.26
2022-11-22T09:56:28.576Z,9.20
2022-11-22T09:57:28.574Z,9.21
2022-11-22T09:58:28.572Z,9.26
2022-11-22T09:59:28.815Z,9.29
2022-11-22T10:00:28.545Z,9.32
2022-11-22T10:01:28.564Z,9.29
2022-11-22T10:02:28.525Z,9.29
2022-11-22T10:03:28.519Z,9.32
2022-11-22T10:04:28.486Z,9.33
2022-11-22T10:05:28.463Z,9.40
2022-11-22T10:06:28.480Z,9.47
2022-11-22T10:07:28.496Z,9.47
2022-11-22T10:08:28.445Z,9.43
2022-11-22T10:09:28.847Z,9.38
2022-11-22T10:10:28.425Z,9.46
2022-11-22T10:11:32.173Z,9.46
2022-11-22T10:12:28.412Z,9.48
2022-11-22T10:13:28.430Z,9.48
2022-11-22T10:14:28.413Z,9.48
2022-11-22T10:15:28.359Z,9.51
2022-11-22T10:16:28.379Z,9.54
2022-11-22T10:17:28.344Z,9.50
2022-11-22T10:18:28.354Z,9.42
2022-11-22T10:19:28.751Z,9.38
2022-11-22T10:20:28.352Z,9.38
2022-11-22T10:21:28.296Z,9.42
2022-11-22T10:22:28.313Z,9.50
2022-11-22T10:23:28.275Z,9.51
2022-11-22T10:24:28.293Z,9.58
2022-11-22T10:25:28.261Z,9.65
2022-11-22T10:26:28.273Z,9.69
2022-11-22T10:27:28.232Z,9.75
2022-11-22T10:28:28.250Z,9.78
2022-11-22T10:29:28.632Z,9.81
2022-11-22T10:30:28.239Z,9.81
2022-11-22T10:31:28.191Z,9.83
2022-11-22T10:32:28.192Z,9.90
2022-11-22T10:33:28.166Z,9.96
2022-11-22T10:34:28.187Z,10.04
2022-11-22T10:35:28.145Z,10.04
2022-11-22T10:36:28.159Z,10.07
2022-11-22T10:37:28.124Z,10.04
2022-11-22T10:38:28.143Z,10.04
2022-11-22T10:39:34.107Z,10.09
2022-11-22T10:40:28.114Z,10.09
2022-11-22T10:41:28.100Z,10.11
2022-11-22T10:42:28.139Z,10.08
2022-11-22T10:43:28.060Z,10.11
2022-11-22T10:44:28.081Z,10.09
2022-11-22T10:45:28.040Z,10.09
2022-11-22T10:46:28.064Z,10.11
2022-11-22T10:47:32.985Z,10.09
2022-11-22T10:48:28.029Z,10.08
2022-11-22T10:49:28.241Z,10.08
2022-11-22T10:50:28.016Z,10.02
2022-11-22T10:51:27.977Z,9.96
2022-11-22T10:52:28.028Z,9.83
2022-11-22T10:53:27.968Z,9.76
2022-11-22T10:54:27.952Z,9.76
2022-11-22T10:55:27.963Z,9.69
2022-11-22T10:56:27.925Z,9.61
2022-11-22T10:57:27.934Z,9.61
2022-11-22T10:58:27.934Z,9.64
2022-11-22T10:59:29.077Z,9.61
2022-11-22T11:00:27.884Z,9.58
2022-11-22T11:01:27.944Z,9.60
2022-11-22T11:02:27.889Z,9.57
2022-11-22T11:03:27.877Z,9.56
2022-11-22T11:04:27.859Z,9.42
2022-11-22T11:05:27.844Z,9.36
2022-11-22T11:06:50.033Z,9.40
2022-11-22T11:07:27.890Z,9.47
2022-11-22T11:08:47.819Z,9.40
2022-11-22T11:10:34.049Z,9.38
2022-11-22T11:11:27.786Z,9.35
2022-11-22T11:12:32.715Z,9.32
2022-11-22T11:13:26.814Z,9.33
2022-11-22T11:14:28.042Z,9.29
2022-11-22T11:15:27.761Z,9.29
2022-11-22T11:16:27.735Z,9.29
2022-11-22T11:17:27.770Z,9.32
2022-11-22T11:18:27.721Z,9.31
2022-11-22T11:19:27.711Z,9.26
2022-11-22T11:20:27.722Z,9.24
2022-11-22T11:21:27.693Z,9.26
2022-11-22T11:22:58.727Z,9.24
2022-11-22T11:23:27.702Z,9.28
2022-11-22T11:24:27.743Z,9.31
2022-11-22T11:25:27.644Z,9.32
2022-11-22T11:26:28.324Z,9.38
2022-11-22T11:27:27.009Z,9.36
2022-11-22T11:28:30.221Z,9.33
2022-11-22T11:29:37.213Z,9.33
2022-11-22T11:30:27.641Z,9.36
2022-11-22T11:31:28.766Z,9.38
2022-11-22T11:32:37.599Z,9.39
2022-11-22T11:33:27.562Z,9.43
2022-11-22T11:34:27.727Z,9.43
2022-11-22T11:35:27.526Z,9.46
2022-11-22T11:36:27.534Z,9.46
2022-11-22T11:37:27.519Z,9.40
2022-11-22T11:38:27.479Z,9.40
2022-11-22T11:39:27.808Z,9.40
2022-11-22T11:40:27.457Z,9.36
2022-11-22T11:41:27.482Z,9.38
2022-11-22T11:42:27.458Z,9.38
2022-11-22T11:43:27.447Z,9.36
2022-11-22T11:44:27.621Z,9.35
2022-11-22T11:45:27.434Z,9.36
2022-11-22T11:46:27.395Z,9.33
2022-11-22T11:47:27.435Z,9.32
2022-11-22T11:48:27.404Z,9.23
2022-11-22T11:49:27.380Z,9.20
2022-11-22T11:50:27.444Z,9.26
2022-11-22T11:51:27.356Z,9.28
2022-11-22T11:52:27.352Z,9.32
2022-11-22T11:53:27.457Z,9.31
2022-11-22T11:54:27.310Z,9.26
2022-11-22T11:55:27.396Z,9.26
2022-11-22T11:56:27.292Z,9.24
2022-11-22T11:57:27.296Z,9.24
2022-11-22T11:58:27.292Z,9.26
2022-11-22T11:59:27.318Z,9.32
2022-11-22T12:00:27.262Z,9.35
2022-11-22T12:01:27.274Z,9.43
2022-11-22T12:02:27.312Z,9.56
2022-11-22T12:03:27.253Z,9.66
2022-11-22T12:04:27.270Z,9.83
2022-11-22T12:05:27.225Z,9.97
2022-11-22T12:06:27.189Z,10.14
2022-11-22T12:07:27.281Z,10.27
2022-11-22T12:08:27.161Z,10.30
2022-11-22T12:09:27.190Z,10.36
2022-11-22T12:10:27.175Z,10.47
2022-11-22T12:11:27.146Z,10.64
2022-11-22T12:12:27.121Z,10.71
2022-11-22T12:13:27.140Z,10.82
2022-11-22T12:14:37.752Z,10.86
2022-11-22T12:15:27.132Z,10.99
2022-11-22T12:16:27.088Z,11.02
2022-11-22T12:17:27.099Z,11.00
2022-11-22T12:18:27.055Z,11.04
2022-11-22T12:19:27.080Z,11.10
2022-11-22T12:20:27.062Z,11.09
2022-11-22T12:21:27.042Z,11.14
2022-11-22T12:22:48.151Z,11.14
2022-11-22T12:23:27.037Z,11.11
2022-11-22T12:48:23.138Z,11.10
2022-11-22T12:48:28.392Z,11.11
2022-11-22T12:48:33.548Z,9.89
2022-11-22T12:49:33.474Z,9.89
2022-11-22T12:50:33.450Z,9.84
2022-11-22T12:51:33.460Z,9.78
2022-11-22T12:52:33.500Z,9.81
2022-11-22T12:53:33.433Z,9.81
2022-11-22T12:54:33.617Z,9.76
2022-11-22T12:55:33.410Z,9.69
2022-11-22T12:56:34.205Z,9.64
2022-11-22T12:57:33.384Z,9.61
2022-11-22T12:58:33.351Z,9.60
2022-11-22T12:59:33.372Z,9.56
2022-11-22T13:00:33.336Z,9.53
2022-11-22T13:01:33.420Z,9.54
2022-11-22T13:02:33.318Z,9.54
2022-11-22T13:03:33.324Z,9.56
2022-11-22T13:04:33.612Z,9.60
2022-11-22T13:05:33.306Z,9.57
2022-11-22T13:06:33.276Z,9.57
2022-11-22T13:07:33.371Z,9.56
2022-11-22T13:08:33.251Z,9.48
2022-11-22T13:09:33.265Z,9.39
2022-11-22T13:10:33.225Z,9.35
2022-11-22T13:11:33.227Z,9.35
2022-11-22T13:12:33.209Z,9.36
2022-11-22T13:13:33.215Z,9.38
2022-11-22T13:14:33.480Z,9.36
2022-11-22T13:15:33.172Z,9.32
2022-11-22T13:16:33.159Z,9.23
2022-11-22T13:17:33.187Z,9.17
2022-11-22T13:18:33.138Z,9.15
2022-11-22T13:19:33.164Z,9.14
2022-11-22T13:20:34.907Z,9.11
2022-11-22T13:21:33.126Z,9.08
2022-11-22T13:22:33.118Z,9.05
2022-11-22T13:23:33.125Z,9.08
2022-11-22T13:24:33.534Z,9.02
2022-11-22T13:25:33.079Z,9.04
2022-11-22T13:26:33.113Z,8.96
2022-11-22T13:27:33.070Z,8.91
2022-11-22T13:28:33.033Z,8.91
2022-11-22T13:29:33.085Z,8.89
2022-11-22T13:30:33.025Z,8.89
2022-11-22T13:31:37.972Z,8.87
2022-11-22T13:32:32.996Z,8.87
2022-11-22T13:33:33.006Z,8.84
2022-11-22T13:34:33.313Z,8.81
2022-11-22T13:35:32.996Z,8.77
2022-11-22T13:36:32.951Z,8.73
2022-11-22T13:37:32.969Z,8.70
2022-11-22T13:38:32.932Z,8.76
2022-11-22T13:39:32.932Z,8.76
2022-11-22T13:40:32.920Z,8.79
2022-11-22T13:41:32.927Z,8.80
2022-11-22T13:42:32.888Z,8.84